createdAt,value
2022-08-21T00:02:25.338Z,26.50
2022-08-21T00:04:57.278Z,26.40
2022-08-21T00:07:27.464Z,26.50
2022-08-21T00:09:57.014Z,26.70
2022-08-21T00:12:27.431Z,26.50
2022-08-21T00:14:58.098Z,26.40
2022-08-21T00:17:27.286Z,26.30
2022-08-21T00:19:56.500Z,26.40
2022-08-21T00:22:25.525Z,26.50
2022-08-21T00:24:54.699Z,26.60
2022-08-21T00:27:23.537Z,26.50
2022-08-21T00:29:54.990Z,26.40
2022-08-21T00:32:25.261Z,26.40
2022-08-21T00:34:54.781Z,26.50
2022-08-21T00:37:23.942Z,26.60
2022-08-21T00:39:52.887Z,26.60
2022-08-21T00:42:21.996Z,26.50
2022-08-21T00:44:53.695Z,26.60
2022-08-21T00:47:22.951Z,26.70
2022-08-21T00:49:51.831Z,26.60
2022-08-21T00:52:24.563Z,26.50
2022-08-21T00:54:54.429Z,26.40
2022-08-21T00:57:38.969Z,26.40
2022-08-21T01:00:15.297Z,26.20
2022-08-21T01:02:44.235Z,26.40
2022-08-21T01:05:13.555Z,26.40
2022-08-21T01:07:43.596Z,26.50
2022-08-21T01:10:24.249Z,26.50
2022-08-21T01:12:56.476Z,26.50
2022-08-21T01:15:34.226Z,26.40
2022-08-21T01:18:04.959Z,26.40
2022-08-21T01:20:35.187Z,26.30
2022-08-21T01:23:07.847Z,26.40
2022-08-21T01:25:37.681Z,26.50
2022-08-21T01:28:13.482Z,26.60
2022-08-21T01:30:44.450Z,26.40
2022-08-21T01:33:13.870Z,26.40
2022-08-21T01:35:42.915Z,26.40
2022-08-21T01:38:13.464Z,26.40
2022-08-21T01:40:42.453Z,26.40
2022-08-21T01:43:11.380Z,26.50
2022-08-21T01:45:40.754Z,26.40
2022-08-21T01:48:09.768Z,26.40
2022-08-21T01:50:39.070Z,26.30
2022-08-21T01:53:07.904Z,26.30
2022-08-21T01:55:38.152Z,26.30
2022-08-21T01:58:06.962Z,26.30
2022-08-21T02:00:36.193Z,26.30
2022-08-21T02:03:05.567Z,26.30
2022-08-21T02:05:34.766Z,26.10
2022-08-21T02:08:04.170Z,26.20
2022-08-21T02:10:35.106Z,26.20
2022-08-21T02:13:06.044Z,26.00
2022-08-21T02:15:35.286Z,25.70
2022-08-21T02:18:07.416Z,25.80
2022-08-21T02:20:39.144Z,25.90
2022-08-21T02:23:09.438Z,26.10
2022-08-21T02:25:39.411Z,26.10
2022-08-21T02:28:11.724Z,26.10
2022-08-21T02:30:48.366Z,26.00
2022-08-21T02:33:18.099Z,26.00
2022-08-21T02:35:48.955Z,26.00
2022-08-21T02:38:20.245Z,26.00
2022-08-21T02:40:51.472Z,26.00
2022-08-21T02:43:24.371Z,25.90
2022-08-21T02:45:55.265Z,25.90
2022-08-21T02:48:27.381Z,25.90
2022-08-21T02:50:58.404Z,25.90
2022-08-21T02:53:28.157Z,25.90
2022-08-21T02:55:59.001Z,25.70
2022-08-21T02:58:32.493Z,25.60
2022-08-21T03:01:01.693Z,25.60
2022-08-21T03:03:31.462Z,25.60
2022-08-21T03:06:00.459Z,25.60
2022-08-21T03:08:29.381Z,25.70
2022-08-21T03:10:58.449Z,25.80
2022-08-21T03:13:28.902Z,25.90
2022-08-21T03:15:58.610Z,26.00
2022-08-21T03:18:29.361Z,26.00
2022-08-21T03:20:58.313Z,25.70
2022-08-21T03:23:32.617Z,25.60
2022-08-21T03:26:02.159Z,25.50
2022-08-21T03:28:35.110Z,25.70
2022-08-21T03:31:04.542Z,25.60
2022-08-21T03:33:33.489Z,25.70
2022-08-21T03:36:05.544Z,25.60
2022-08-21T03:38:36.028Z,25.70
2022-08-21T03:41:08.863Z,25.60
2022-08-21T03:43:39.651Z,25.70
2022-08-21T03:46:21.025Z,25.80
2022-08-21T03:48:50.117Z,25.90
2022-08-21T03:51:21.511Z,25.90
2022-08-21T03:53:50.662Z,26.00
2022-08-21T03:56:19.763Z,25.90
2022-08-21T03:58:50.145Z,25.90
2022-08-21T04:01:19.163Z,25.90
2022-08-21T04:03:48.122Z,25.90
2022-08-21T04:06:17.370Z,25.90
2022-08-21T04:08:46.356Z,25.80
2022-08-21T04:11:15.910Z,25.70
2022-08-21T04:13:45.060Z,25.60
2022-08-21T04:16:15.902Z,25.60
2022-08-21T04:18:45.096Z,25.40
2022-08-21T04:21:14.636Z,25.50
2022-08-21T04:23:44.205Z,25.40
2022-08-21T04:26:13.305Z,25.50
2022-08-21T04:28:42.228Z,25.50
2022-08-21T04:31:14.756Z,25.40
2022-08-21T04:33:43.717Z,25.60
2022-08-21T04:36:12.997Z,25.70
2022-08-21T04:38:43.213Z,25.90
2022-08-21T04:41:14.057Z,25.70
2022-08-21T04:43:44.140Z,25.50
2022-08-21T04:46:14.824Z,25.30
2022-08-21T04:48:43.642Z,25.30
2022-08-21T04:51:15.552Z,25.30
2022-08-21T04:53:49.573Z,25.30
2022-08-21T04:56:24.140Z,25.40
2022-08-21T04:58:54.929Z,25.30
2022-08-21T05:01:29.634Z,25.40
2022-08-21T05:04:01.396Z,25.40
2022-08-21T05:06:33.152Z,25.50
2022-08-21T05:09:03.501Z,25.60
2022-08-21T05:11:33.314Z,25.40
2022-08-21T05:14:02.201Z,25.40
2022-08-21T05:16:37.050Z,25.40
2022-08-21T05:19:07.815Z,25.50
2022-08-21T05:21:37.811Z,25.50
2022-08-21T05:24:06.748Z,25.70
2022-08-21T05:26:43.766Z,25.70
2022-08-21T05:29:16.478Z,25.60
2022-08-21T05:31:47.668Z,25.40
2022-08-21T05:34:20.191Z,25.40
2022-08-21T05:36:49.271Z,25.40
2022-08-21T05:39:18.195Z,25.60
2022-08-21T05:41:47.160Z,25.70
2022-08-21T05:44:16.045Z,25.70
2022-08-21T05:46:46.539Z,25.80
2022-08-21T05:49:15.374Z,25.90
2022-08-21T05:51:44.657Z,26.00
2022-08-21T05:54:13.451Z,25.90
2022-08-21T05:56:45.729Z,25.60
2022-08-21T05:59:14.836Z,25.50
2022-08-21T06:01:43.702Z,25.70
2022-08-21T06:04:14.576Z,25.80
2022-08-21T06:06:43.471Z,25.90
2022-08-21T06:09:12.324Z,26.00
2022-08-21T06:11:41.377Z,25.90
2022-08-21T06:14:10.362Z,25.70
2022-08-21T06:16:39.207Z,25.70
2022-08-21T06:19:08.075Z,26.00
2022-08-21T06:21:38.449Z,26.00
2022-08-21T06:24:08.004Z,26.00
2022-08-21T06:26:36.963Z,26.00
2022-08-21T06:29:05.922Z,26.20
2022-08-21T06:31:34.628Z,26.40
2022-08-21T06:34:03.475Z,26.60
2022-08-21T06:36:32.351Z,26.50
2022-08-21T06:39:02.687Z,26.60
2022-08-21T06:41:46.412Z,26.40
2022-08-21T06:44:19.095Z,26.40
2022-08-21T06:46:48.275Z,26.50
2022-08-21T06:49:21.264Z,26.60
2022-08-21T06:51:50.777Z,26.50
2022-08-21T06:54:20.956Z,26.80
2022-08-21T06:56:49.890Z,26.80
2022-08-21T06:59:20.525Z,26.80
2022-08-21T07:01:49.385Z,26.90
2022-08-21T07:04:18.264Z,27.10
2022-08-21T07:06:47.204Z,27.00
2022-08-21T07:09:16.050Z,27.10
2022-08-21T07:11:56.073Z,27.30
2022-08-21T07:14:25.229Z,27.40
2022-08-21T07:16:54.127Z,27.30
2022-08-21T07:19:23.208Z,27.30
2022-08-21T07:21:52.228Z,27.60
2022-08-21T07:24:21.211Z,27.60
2022-08-21T07:26:51.460Z,27.40
2022-08-21T07:29:20.353Z,27.60
2022-08-21T07:31:49.157Z,27.80
2022-08-21T07:34:20.174Z,27.90
2022-08-21T07:36:49.084Z,27.90
2022-08-21T07:39:18.214Z,28.20
2022-08-21T07:41:47.178Z,28.10
2022-08-21T07:44:17.448Z,27.80
2022-08-21T07:46:46.277Z,27.70
2022-08-21T07:49:15.329Z,28.00
2022-08-21T07:51:44.387Z,28.40
2022-08-21T07:54:17.066Z,28.60
2022-08-21T07:56:46.908Z,28.80
2022-08-21T07:59:17.176Z,28.80
2022-08-21T08:01:46.134Z,28.40
2022-08-21T08:04:16.145Z,28.70
2022-08-21T08:06:45.217Z,28.60
2022-08-21T08:09:14.074Z,28.50
2022-08-21T08:11:45.379Z,28.60
2022-08-21T08:14:14.341Z,28.40
2022-08-21T08:16:45.326Z,28.20
2022-08-21T08:19:14.172Z,28.10
2022-08-21T08:21:43.236Z,28.10
2022-08-21T08:24:19.454Z,28.30
2022-08-21T08:26:53.850Z,28.40
2022-08-21T08:29:23.629Z,28.50
2022-08-21T08:31:54.121Z,28.60
2022-08-21T08:34:25.528Z,28.40
2022-08-21T08:36:55.048Z,28.20
2022-08-21T08:39:26.380Z,28.20
2022-08-21T08:42:32.805Z,28.30
2022-08-21T08:45:00.062Z,28.60
2022-08-21T08:47:33.662Z,28.70
2022-08-21T08:50:05.975Z,28.50
2022-08-21T08:52:37.524Z,28.50
2022-08-21T08:55:11.246Z,28.50
2022-08-21T08:57:44.834Z,28.70
2022-08-21T09:00:21.802Z,28.50
2022-08-21T09:02:55.431Z,28.60
2022-08-21T09:05:30.505Z,28.70
2022-08-21T09:08:21.406Z,28.60
2022-08-21T09:10:59.962Z,28.80
2022-08-21T09:13:39.247Z,29.20
2022-08-21T09:16:15.967Z,29.30
2022-08-21T09:18:54.610Z,29.40
2022-08-21T09:21:38.573Z,29.30
2022-08-21T09:24:24.564Z,29.50
2022-08-21T09:26:59.399Z,29.40
2022-08-21T09:29:32.844Z,29.70
2022-08-21T09:32:02.378Z,29.90
2022-08-21T09:34:33.904Z,29.80
2022-08-21T09:37:03.463Z,29.80
2022-08-21T09:39:39.935Z,30.00
2022-08-21T09:42:12.495Z,30.30
2022-08-21T09:44:45.096Z,30.50
2022-08-21T09:47:15.045Z,30.30
2022-08-21T09:49:46.049Z,29.80
2022-08-21T09:52:20.970Z,29.70
2022-08-21T09:54:54.955Z,30.10
2022-08-21T09:57:50.238Z,30.60
2022-08-21T10:00:27.513Z,30.40
2022-08-21T10:02:56.644Z,30.30
2022-08-21T10:05:29.545Z,30.20
2022-08-21T10:07:58.556Z,30.20
2022-08-21T10:10:31.339Z,30.50
2022-08-21T10:13:12.561Z,30.60
2022-08-21T10:15:49.876Z,30.40
2022-08-21T10:18:26.932Z,30.30
2022-08-21T10:21:07.286Z,30.70
2022-08-21T10:23:53.935Z,30.50
2022-08-21T10:26:37.338Z,30.10
2022-08-21T10:29:26.328Z,29.80
2022-08-21T10:32:04.103Z,30.00
2022-08-21T10:34:48.086Z,29.90
2022-08-21T10:37:29.852Z,29.90
2022-08-21T10:40:11.306Z,30.10
2022-08-21T10:42:51.443Z,30.70
2022-08-21T10:45:33.071Z,30.70
2022-08-21T10:48:06.895Z,30.30
2022-08-21T10:50:42.865Z,29.90
2022-08-21T10:53:39.199Z,30.00
2022-08-21T10:56:18.551Z,29.80
2022-08-21T10:59:01.339Z,30.40
2022-08-21T11:01:35.869Z,31.00
2022-08-21T11:04:14.185Z,31.30
2022-08-21T11:06:49.956Z,31.30
2022-08-21T11:09:24.851Z,30.90
2022-08-21T11:12:11.111Z,31.10
2022-08-21T11:14:51.026Z,31.50
2022-08-21T11:17:27.183Z,31.90
2022-08-21T11:20:05.291Z,31.40
2022-08-21T11:22:43.068Z,31.00
2022-08-21T11:25:36.636Z,30.90
2022-08-21T11:28:14.458Z,31.00
2022-08-21T11:30:52.887Z,31.20
2022-08-21T11:33:34.354Z,31.60
2022-08-21T11:36:14.649Z,31.80
2022-08-21T11:38:48.518Z,31.30
2022-08-21T11:41:31.365Z,31.10
2022-08-21T11:44:10.375Z,31.00
2022-08-21T11:46:46.973Z,31.50
2022-08-21T11:49:34.455Z,31.10
2022-08-21T11:52:14.368Z,31.50
2022-08-21T11:54:46.844Z,31.50
2022-08-21T11:57:22.738Z,31.50
2022-08-21T11:59:56.042Z,31.30
2022-08-21T12:02:33.476Z,31.30
2022-08-21T12:05:08.860Z,31.10
2022-08-21T12:07:41.489Z,31.60
2022-08-21T12:10:16.065Z,31.90
2022-08-21T12:12:47.777Z,31.60
2022-08-21T12:15:27.505Z,31.30
2022-08-21T12:18:02.093Z,31.50
2022-08-21T12:20:47.426Z,31.50
2022-08-21T12:23:28.141Z,31.00
2022-08-21T12:26:13.806Z,31.30
2022-08-21T12:28:49.759Z,31.40
2022-08-21T12:31:27.001Z,31.60
2022-08-21T12:34:01.569Z,31.90
2022-08-21T12:36:44.030Z,32.10
2022-08-21T12:39:19.584Z,31.60
2022-08-21T12:41:52.577Z,32.10
2022-08-21T12:44:30.618Z,32.10
2022-08-21T12:47:05.026Z,32.20
2022-08-21T12:49:37.838Z,32.00
2022-08-21T12:52:16.546Z,31.60
2022-08-21T12:54:46.966Z,31.90
2022-08-21T12:57:22.747Z,31.80
2022-08-21T12:59:57.961Z,32.00
2022-08-21T13:02:31.571Z,32.10
2022-08-21T13:05:04.095Z,32.10
2022-08-21T13:07:35.383Z,31.80
2022-08-21T13:10:08.773Z,31.60
2022-08-21T13:12:38.365Z,31.90
2022-08-21T13:15:09.876Z,32.10
2022-08-21T13:17:43.950Z,32.00
2022-08-21T13:20:22.624Z,32.10
2022-08-21T13:22:51.733Z,31.90
2022-08-21T13:25:23.294Z,31.90
2022-08-21T13:28:02.623Z,31.60
2022-08-21T13:30:33.424Z,31.90
2022-08-21T13:33:12.843Z,32.40
2022-08-21T13:35:51.418Z,32.40
2022-08-21T13:38:26.953Z,32.10
2022-08-21T13:41:00.033Z,32.00
2022-08-21T13:43:30.834Z,31.90
2022-08-21T13:46:03.665Z,32.30
2022-08-21T13:48:35.856Z,32.40
2022-08-21T13:51:06.266Z,32.00
2022-08-21T13:53:37.863Z,32.30
2022-08-21T13:56:07.635Z,32.20
2022-08-21T13:58:45.491Z,32.30
2022-08-21T14:01:23.624Z,32.50
2022-08-21T14:03:58.707Z,32.80
2022-08-21T14:06:30.433Z,32.50
2022-08-21T14:09:02.033Z,32.70
2022-08-21T14:11:36.718Z,32.50
2022-08-21T14:14:14.928Z,32.90
2022-08-21T14:16:47.794Z,33.00
2022-08-21T14:19:24.714Z,32.90
2022-08-21T14:22:42.444Z,32.70
2022-08-21T14:25:16.327Z,33.00
2022-08-21T14:27:51.775Z,32.90
2022-08-21T14:30:24.971Z,32.10
2022-08-21T14:32:56.190Z,32.00
2022-08-21T14:35:25.595Z,32.50
2022-08-21T14:37:57.670Z,32.80
2022-08-21T14:40:27.804Z,33.20
2022-08-21T14:42:58.208Z,32.90
2022-08-21T14:45:30.670Z,32.00
2022-08-21T14:48:01.859Z,31.70
2022-08-21T14:50:31.527Z,32.40
2022-08-21T14:53:00.714Z,32.90
2022-08-21T14:55:30.131Z,33.30
2022-08-21T14:58:00.080Z,32.70
2022-08-21T15:00:49.264Z,32.60
2022-08-21T15:03:20.191Z,32.20
2022-08-21T15:05:49.255Z,32.30
2022-08-21T15:08:18.290Z,32.80
2022-08-21T15:11:10.467Z,32.50
2022-08-21T15:13:38.528Z,31.90
2022-08-21T15:16:07.888Z,31.80
2022-08-21T15:18:38.375Z,31.60
2022-08-21T15:21:07.869Z,30.90
2022-08-21T15:23:37.029Z,30.60
2022-08-21T15:26:12.736Z,30.50
2022-08-21T15:28:42.010Z,30.10
2022-08-21T15:31:10.903Z,29.90
2022-08-21T15:33:41.472Z,29.80
2022-08-21T15:36:10.571Z,29.90
2022-08-21T15:38:39.624Z,30.10
2022-08-21T15:41:08.876Z,30.00
2022-08-21T15:43:44.837Z,29.90
2022-08-21T15:46:16.935Z,30.10
2022-08-21T15:48:48.441Z,29.80
2022-08-21T15:51:18.806Z,29.60
2022-08-21T15:53:47.799Z,29.70
2022-08-21T15:56:24.191Z,29.70
2022-08-21T15:58:54.706Z,29.70
2022-08-21T16:01:24.624Z,29.30
2022-08-21T16:03:56.339Z,29.30
2022-08-21T16:06:38.581Z,29.30
2022-08-21T16:09:14.499Z,29.40
2022-08-21T16:11:43.937Z,29.20
2022-08-21T16:14:14.624Z,29.10
2022-08-21T16:16:43.616Z,29.30
2022-08-21T16:19:15.113Z,29.40
2022-08-21T16:21:45.355Z,29.30
2022-08-21T16:24:14.481Z,28.90
2022-08-21T16:26:43.552Z,28.00
2022-08-21T16:29:13.280Z,26.80
2022-08-21T16:31:42.696Z,25.50
2022-08-21T16:34:18.445Z,24.40
2022-08-21T16:36:48.221Z,24.10
2022-08-21T16:39:17.384Z,24.30
2022-08-21T16:41:46.475Z,24.40
2022-08-21T16:44:15.739Z,24.70
2022-08-21T16:46:45.244Z,24.80
2022-08-21T16:49:14.738Z,24.90
2022-08-21T16:51:45.314Z,24.70
2022-08-21T16:54:14.502Z,24.70
2022-08-21T16:56:47.419Z,24.90
2022-08-21T16:59:17.571Z,25.00
2022-08-21T17:01:47.775Z,25.20
2022-08-21T17:04:16.836Z,25.20
2022-08-21T17:06:47.259Z,25.20
2022-08-21T17:09:16.290Z,25.20
2022-08-21T17:11:49.887Z,25.10
2022-08-21T17:14:22.637Z,25.00
2022-08-21T17:16:54.106Z,25.10
2022-08-21T17:19:23.626Z,25.00
2022-08-21T17:21:54.042Z,25.00
2022-08-21T17:24:23.089Z,25.30
2022-08-21T17:26:54.153Z,25.50
2022-08-21T17:29:28.612Z,25.60
2022-08-21T17:31:58.585Z,25.70
2022-08-21T17:34:31.175Z,25.80
2022-08-21T17:37:02.508Z,25.40
2022-08-21T17:39:31.585Z,25.20
2022-08-21T17:42:04.732Z,25.00
2022-08-21T17:44:34.043Z,24.90
2022-08-21T17:47:03.173Z,25.10
2022-08-21T17:49:32.278Z,24.80
2022-08-21T17:52:03.716Z,24.80
2022-08-21T17:54:33.094Z,24.80
2022-08-21T17:57:02.313Z,24.80
2022-08-21T17:59:31.311Z,24.70
2022-08-21T18:02:01.836Z,24.90
2022-08-21T18:04:31.711Z,25.00
2022-08-21T18:07:00.735Z,25.10
2022-08-21T18:09:31.382Z,25.30
2022-08-21T18:12:01.541Z,25.40
2022-08-21T18:14:32.906Z,25.50
2022-08-21T18:17:02.156Z,25.40
2022-08-21T18:19:31.174Z,25.40
2022-08-21T18:22:04.330Z,25.50
2022-08-21T18:24:35.726Z,25.60
2022-08-21T18:27:07.266Z,25.80
2022-08-21T18:29:46.973Z,25.70
2022-08-21T18:32:31.701Z,25.60
2022-08-21T18:35:03.392Z,25.40
2022-08-21T18:37:32.938Z,25.30
2022-08-21T18:40:03.813Z,25.20
2022-08-21T18:42:37.883Z,24.90
2022-08-21T18:45:10.759Z,24.60
2022-08-21T18:47:44.052Z,24.70
2022-08-21T18:50:14.762Z,24.70
2022-08-21T18:53:18.210Z,24.60
2022-08-21T18:55:37.707Z,24.50
2022-08-21T18:58:10.490Z,24.30
2022-08-21T19:00:46.101Z,24.30
2022-08-21T19:03:23.752Z,24.20
2022-08-21T19:05:53.977Z,24.20
2022-08-21T19:08:27.392Z,24.20
2022-08-21T19:11:01.765Z,24.20
2022-08-21T19:13:31.992Z,24.20
2022-08-21T19:16:03.911Z,24.30
2022-08-21T19:18:38.639Z,24.40
2022-08-21T19:21:08.421Z,24.50
2022-08-21T19:23:37.613Z,24.60
2022-08-21T19:26:11.408Z,24.60
2022-08-21T19:28:44.849Z,24.60
2022-08-21T19:31:19.750Z,24.60
2022-08-21T19:34:01.689Z,24.60
2022-08-21T19:36:31.358Z,24.60
2022-08-21T19:39:00.643Z,24.60
2022-08-21T19:41:34.018Z,24.60
2022-08-21T19:44:06.093Z,24.70
2022-08-21T19:46:38.370Z,24.80
2022-08-21T19:49:09.837Z,24.80
2022-08-21T19:51:40.389Z,24.80
2022-08-21T19:54:15.893Z,24.80
2022-08-21T19:56:48.849Z,24.90
2022-08-21T19:59:24.967Z,24.90
2022-08-21T20:01:54.421Z,25.00
2022-08-21T20:04:24.123Z,25.00
2022-08-21T20:06:56.749Z,25.00
2022-08-21T20:09:25.993Z,25.10
2022-08-21T20:11:59.901Z,25.10
2022-08-21T20:14:32.212Z,25.10
2022-08-21T20:17:08.309Z,25.10
2022-08-21T20:19:41.952Z,25.20
2022-08-21T20:22:12.269Z,25.10
2022-08-21T20:24:42.583Z,25.20
2022-08-21T20:27:18.041Z,25.30
2022-08-21T20:32:38.542Z,25.40
2022-08-21T20:35:12.415Z,25.50
2022-08-21T20:37:43.389Z,25.40
2022-08-21T20:40:14.758Z,25.40
2022-08-21T20:42:50.381Z,25.40
2022-08-21T20:45:22.540Z,25.30
2022-08-21T20:47:55.014Z,25.30
2022-08-21T20:50:28.481Z,25.20
2022-08-21T20:53:04.375Z,25.30
2022-08-21T20:55:37.157Z,25.40
2022-08-21T20:58:12.696Z,25.40
2022-08-21T21:00:44.463Z,25.40
2022-08-21T21:03:17.746Z,25.50
2022-08-21T21:05:56.270Z,25.50
2022-08-21T21:08:28.779Z,25.50
2022-08-21T21:11:02.639Z,25.40
2022-08-21T21:13:36.597Z,25.30
2022-08-21T21:19:03.459Z,25.30
2022-08-21T21:21:35.651Z,25.20
2022-08-21T21:24:10.990Z,25.20
2022-08-21T21:26:48.816Z,25.20
2022-08-21T21:29:25.310Z,25.30
2022-08-21T21:31:55.662Z,25.30
2022-08-21T21:37:25.616Z,25.30
2022-08-21T21:40:02.162Z,25.20
2022-08-21T21:42:42.627Z,25.20
2022-08-21T21:45:25.111Z,25.20
2022-08-21T21:48:07.518Z,25.30
2022-08-21T21:50:51.019Z,25.30
2022-08-21T21:53:51.865Z,25.30
2022-08-21T21:56:33.317Z,25.20
2022-08-21T21:59:23.112Z,25.20
2022-08-21T22:02:05.187Z,25.30
2022-08-21T22:04:39.128Z,25.30
2022-08-21T22:07:29.487Z,25.30
2022-08-21T22:10:30.058Z,25.40
2022-08-21T22:13:11.083Z,25.40
2022-08-21T22:15:41.432Z,25.50
2022-08-21T22:18:20.447Z,25.50
2022-08-21T22:20:55.354Z,25.50
2022-08-21T22:23:27.948Z,25.60
2022-08-21T22:26:06.357Z,25.60
2022-08-21T22:28:40.620Z,25.60
2022-08-21T22:31:18.209Z,25.60
2022-08-21T22:34:05.601Z,25.50
2022-08-21T22:36:38.130Z,25.50
2022-08-21T22:39:10.089Z,25.60
2022-08-21T22:41:42.522Z,25.60
2022-08-21T22:44:22.598Z,25.60
2022-08-21T22:46:55.416Z,25.60
2022-08-21T22:49:40.348Z,25.50
2022-08-21T22:52:24.899Z,25.30
2022-08-21T22:54:58.454Z,25.20
2022-08-21T22:57:36.530Z,25.30
2022-08-21T23:00:13.125Z,25.30
2022-08-21T23:02:56.307Z,25.30
2022-08-21T23:05:35.735Z,25.30
2022-08-21T23:08:24.166Z,25.30
2022-08-21T23:10:59.873Z,25.30
2022-08-21T23:13:39.035Z,25.20
2022-08-21T23:16:18.048Z,25.20
2022-08-21T23:19:01.241Z,25.30
2022-08-21T23:21:41.106Z,25.20
2022-08-21T23:24:24.914Z,25.20
2022-08-21T23:27:01.416Z,25.30
2022-08-21T23:29:45.784Z,25.20
2022-08-21T23:32:35.292Z,25.20
2022-08-21T23:35:16.278Z,25.20
2022-08-21T23:37:55.139Z,25.20
2022-08-21T23:40:51.256Z,25.10
2022-08-21T23:43:33.420Z,25.20
2022-08-21T23:46:17.412Z,25.20
2022-08-21T23:48:57.926Z,25.20
2022-08-21T23:51:34.931Z,25.10
2022-08-21T23:54:16.817Z,25.00
2022-08-21T23:57:03.094Z,25.00
2022-08-21T23:59:47.718Z,24.90
